KGUP

Gallup Municipal Airport

Gallup, New Mexico, USA
KGUP 151120Z 1512/1612 VRB03KT P6SM SKC
Issued Valid From Valid To
Nov-15 @ 11:20 UTC
(an hour ago)
Nov-15 @ 12:00 UTC
(43 minutes ago)
Nov-16 @ 12:00 UTC
(in 23 hours)
Nov-15 @ 12:00 to Nov-16 @ 12:00
KGUP 151120Z 1512/1612 VRB03KT P6SM SKC
Wind Visibility Clouds
Variable at 3 knots Greater than 6 miles
  • Clear skies
KGUP 151120Z 1512/1612 VRB03KT P6SM SKC
Issued Nov-15 @ 11:20 UTC
(an hour ago)
Valid From Nov-15 @ 12:00 UTC
(43 minutes ago)
Valid To Nov-16 @ 12:00 UTC
(in 23 hours)
Nov-15 @ 12:00 - Nov-16 @ 12:00
Wind Visibility
Variable at 3 knots Greater than 6 miles
Clouds
  • Clear skies